地図

経路データ

SID SEASON NUMBER BASIN SUBBASIN NAME ISO_TIME NATURE LAT LON WMO_WIND WMO_PRES WMO_AGENCY TRACK_TYPE DIST2LAND LANDFALL IFLAG USA_AGENCY USA_ATCF_ID USA_LAT USA_LON USA_RECORD USA_STATUS USA_WIND USA_PRES USA_SSHS USA_R34_NE USA_R34_SE USA_R34_SW USA_R34_NW USA_R50_NE USA_R50_SE USA_R50_SW USA_R50_NW USA_R64_NE USA_R64_SE USA_R64_SW USA_R64_NW USA_POCI USA_ROCI USA_RMW USA_EYE TOKYO_LAT TOKYO_LON TOKYO_GRADE TOKYO_WIND TOKYO_PRES TOKYO_R50_DIR TOKYO_R50_LONG TOKYO_R50_SHORT TOKYO_R30_DIR TOKYO_R30_LONG TOKYO_R30_SHORT TOKYO_LAND CMA_LAT CMA_LON CMA_CAT CMA_WIND CMA_PRES HKO_LAT HKO_LON HKO_CAT HKO_WIND HKO_PRES NEWDELHI_LAT NEWDELHI_LON NEWDELHI_GRADE NEWDELHI_WIND NEWDELHI_PRES NEWDELHI_CI NEWDELHI_DP NEWDELHI_POCI REUNION_LAT REUNION_LON REUNION_TYPE REUNION_WIND REUNION_PRES REUNION_TNUM REUNION_CI REUNION_RMW REUNION_R34_NE REUNION_R34_SE REUNION_R34_SW REUNION_R34_NW REUNION_R50_NE REUNION_R50_SE REUNION_R50_SW REUNION_R50_NW REUNION_R64_NE REUNION_R64_SE REUNION_R64_SW REUNION_R64_NW BOM_LAT BOM_LON BOM_TYPE BOM_WIND BOM_PRES BOM_TNUM BOM_CI BOM_RMW BOM_R34_NE BOM_R34_SE BOM_R34_SW BOM_R34_NW BOM_R50_NE BOM_R50_SE BOM_R50_SW BOM_R50_NW BOM_R64_NE BOM_R64_SE BOM_R64_SW BOM_R64_NW BOM_ROCI BOM_POCI BOM_EYE BOM_POS_METHOD BOM_PRES_METHOD NADI_LAT NADI_LON NADI_CAT NADI_WIND NADI_PRES WELLINGTON_LAT WELLINGTON_LON WELLINGTON_WIND WELLINGTON_PRES DS824_LAT DS824_LON DS824_STAGE DS824_WIND DS824_PRES TD9636_LAT TD9636_LON TD9636_STAGE TD9636_WIND TD9636_PRES TD9635_LAT TD9635_LON TD9635_WIND TD9635_PRES TD9635_ROCI NEUMANN_LAT NEUMANN_LON NEUMANN_CLASS NEUMANN_WIND NEUMANN_PRES MLC_LAT MLC_LON MLC_CLASS MLC_WIND MLC_PRES USA_GUST BOM_GUST BOM_GUST_PER REUNION_GUST REUNION_GUST_PER USA_SEAHGT USA_SEARAD_NE USA_SEARAD_SE USA_SEARAD_SW USA_SEARAD_NW STORM_SPEED STORM_DIR
1881121S06096 1881 14 SI WA NOT_NAMED 1881-05-01 06:00:00 NR -6.20000 95.6000 main 623 623 _____O________ -1 -6.20000 95.6000 99 9.90000 2 256
1881121S06096 1881 14 SI WA NOT_NAMED 1881-05-01 09:00:00 NR -6.22847 95.4899 main 629 629 _____P________ -1 -6.22847 95.4899 99 2 255
1881121S06096 1881 14 SI WA NOT_NAMED 1881-05-01 12:00:00 NR -6.25899 95.3748 main 645 645 _____P________ -1 -6.25899 95.3748 99 2 255
1881121S06096 1881 14 SI WA NOT_NAMED 1881-05-01 15:00:00 NR -6.29361 95.2497 main 659 659 _____P________ -1 -6.29361 95.2497 99 3 254
1881121S06096 1881 14 SI WA NOT_NAMED 1881-05-01 18:00:00 NR -6.33439 95.1097 main 666 666 _____P________ -1 -6.33439 95.1097 99 3 253
1881121S06096 1881 14 SI WA NOT_NAMED 1881-05-01 21:00:00 NR -6.38338 94.9497 main 688 688 _____P________ -1 -6.38338 94.9497 99 4 252
1881121S06096 1881 14 SI WA NOT_NAMED 1881-05-02 00:00:00 NR -6.44262 94.7648 main 696 696 _____P________ -1 -6.44262 94.7648 99 4 252
1881121S06096 1881 14 SI WA NOT_NAMED 1881-05-02 03:00:00 NR -6.51415 94.5499 main 726 726 _____P________ -1 -6.51415 94.5499 99 5 251
1881121S06096 1881 14 SI WA NOT_NAMED 1881-05-02 06:00:00 NR -6.60000 94.3000 main 749 749 _____O________ -1 -6.60000 94.3000 99 9.90000 6 251
1881121S06096 1881 14 SI WA NOT_NAMED 1881-05-02 09:00:00 NR -6.70188 94.0126 main 780 780 _____P________ -1 -6.70188 94.0126 99 6 250
1881121S06096 1881 14 SI WA NOT_NAMED 1881-05-02 12:00:00 NR -6.82038 93.6948 main 812 812 _____P________ -1 -6.82038 93.6948 99 7 249
1881121S06096 1881 14 SI WA NOT_NAMED 1881-05-02 15:00:00 NR -6.95582 93.3566 main 851 851 _____P________ -1 -6.95582 93.3566 99 7 247
1881121S06096 1881 14 SI WA NOT_NAMED 1881-05-02 18:00:00 NR -7.10855 93.0076 main 891 891 _____P________ -1 -7.10855 93.0076 99 8 245
1881121S06096 1881 14 SI WA NOT_NAMED 1881-05-02 21:00:00 NR -7.27892 92.6577 main 930 930 _____P________ -1 -7.27892 92.6577 99 8 242
1881121S06096 1881 14 SI WA NOT_NAMED 1881-05-03 00:00:00 NR -7.46733 92.3166 main 978 978 _____P________ -1 -7.46733 92.3166 99 8 239
1881121S06096 1881 14 SI WA NOT_NAMED 1881-05-03 03:00:00 NR -7.67420 91.9941 main 1018 1018 _____P________ -1 -7.67420 91.9941 99 8 235
1881121S06096 1881 14 SI WA NOT_NAMED 1881-05-03 06:00:00 NR -7.90000 91.7000 main 1058 1058 _____O________ -1 -7.90000 91.7000 99 9.90000 7 230
1881121S06096 1881 14 SI WA NOT_NAMED 1881-05-03 09:00:00 NR -8.14081 91.4408 main 1097 1097 _____P________ -1 -8.14081 91.4408 99 7 224
1881121S06096 1881 14 SI WA NOT_NAMED 1881-05-03 12:00:00 NR -8.40280 91.2033 main 1136 1136 _____P________ -1 -8.40280 91.2033 99 7 220
1881121S06096 1881 14 SI WA NOT_NAMED 1881-05-03 15:00:00 NR -8.68206 90.9888 main 1175 1175 _____P________ -1 -8.68206 90.9888 99 7 215
1881121S06096 1881 14 SI WA NOT_NAMED 1881-05-03 18:00:00 NR -8.97466 90.7983 main 1213 1213 _____P________ -1 -8.97466 90.7983 99 7 211
1881121S06096 1881 14 SI WA NOT_NAMED 1881-05-03 21:00:00 NR -9.27668 90.6330 main 1252 1252 _____P________ -1 -9.27668 90.6330 99 7 206
1881121S06096 1881 14 SI WA NOT_NAMED 1881-05-04 00:00:00 NR -9.58420 90.4940 main 1283 1283 _____P________ -1 -9.58420 90.4940 99 7 202
1881121S06096 1881 14 SI WA NOT_NAMED 1881-05-04 03:00:00 NR -9.89329 90.3827 main 1314 1314 _____P________ -1 -9.89329 90.3827 99 6 197
1881121S06096 1881 14 SI WA NOT_NAMED 1881-05-04 06:00:00 NR -10.2000 90.3000 main 1345 1345 _____O________ -1 -10.2000 90.3000 99 9.90000 6 195
1881121S06096 1881 14 SI WA NOT_NAMED 1881-05-04 09:00:00 NR -10.4835 90.2216 main 1377 1377 _____P________ -1 -10.4835 90.2216 99 6 192
1881121S06096 1881 14 SI WA NOT_NAMED 1881-05-04 12:00:00 NR -10.7665 90.1724 main 1401 1401 _____P________ -1 -10.7665 90.1724 99 6 187
1881121S06096 1881 14 SI WA NOT_NAMED 1881-05-04 15:00:00 NR -11.0499 90.1508 main 1417 1417 _____P________ -1 -11.0499 90.1508 99 6 0
1881121S06096 1881 14 SI WA NOT_NAMED 1881-05-04 18:00:00 NR -11.3345 90.1552 main 1442 1442 _____P________ -1 -11.3345 90.1552 99 6 177
1881121S06096 1881 14 SI WA NOT_NAMED 1881-05-04 21:00:00 NR -11.6211 90.1839 main 1467 1467 _____P________ -1 -11.6211 90.1839 99 6 172
1881121S06096 1881 14 SI WA NOT_NAMED 1881-05-05 00:00:00 NR -11.9103 90.2353 main 1492 1492 _____P________ -1 -11.9103 90.2353 99 6 169
1881121S06096 1881 14 SI WA NOT_NAMED 1881-05-05 03:00:00 NR -12.2030 90.3079 main 1511 1511 _____P________ -1 -12.2030 90.3079 99 6 165
1881121S06096 1881 14 SI WA NOT_NAMED 1881-05-05 06:00:00 NR -12.5000 90.4000 main 1530 1530 _____O________ -1 -12.5000 90.4000 99 9.90000 6 162
1881121S06096 1881 14 SI WA NOT_NAMED 1881-05-05 09:00:00 NR -12.8017 90.5099 main 1550 1550 _____P________ -1 -12.8017 90.5099 99 7 159
1881121S06096 1881 14 SI WA NOT_NAMED 1881-05-05 12:00:00 NR -13.1079 90.6356 main 1570 1564 _____P________ -1 -13.1079 90.6356 99 7 157
1881121S06096 1881 14 SI WA NOT_NAMED 1881-05-05 15:00:00 NR -13.4177 90.7749 main 1585 1585 _____P________ -1 -13.4177 90.7749 99 7 156
1881121S06096 1881 14 SI WA NOT_NAMED 1881-05-05 18:00:00 NR -13.7306 90.9257 main 1607 1607 _____P________ -1 -13.7306 90.9257 99 7 154
1881121S06096 1881 14 SI WA NOT_NAMED 1881-05-05 21:00:00 NR -14.0460 91.0858 main 1623 1623 _____P________ -1 -14.0460 91.0858 99 7 153
1881121S06096 1881 14 SI WA NOT_NAMED 1881-05-06 00:00:00 NR -14.3631 91.2530 main 1649 1649 _____P________ -1 -14.3631 91.2530 99 7 153
1881121S06096 1881 14 SI WA NOT_NAMED 1881-05-06 03:00:00 NR -14.6813 91.4251 main 1673 1667 _____P________ -1 -14.6813 91.4251 99 7 152
1881121S06096 1881 14 SI WA NOT_NAMED 1881-05-06 06:00:00 NR -15.0000 91.6000 main 1691 _____O________ -1 -15.0000 91.6000 99 9.90000 7 152

IBTrACS Databaseについて

本データベースは、米国NOAAが公開する1842年以降の世界の熱帯低気圧のベストトラックデータアーカイブInternational Best Track Archive for Climate Stewardship (IBTrACS)を、ウェブで閲覧しやすい形式に変換したものです。

最終更新日:2021-12-01